Time;durP1;ratioP1;P1;durP2;ratioP2;P2;SDS_P1;SDS_P2;PMS_P1;PMS_P2;Temp;Humidity;BMP_temperature;BMP_pressure;BME280_temperature;BME280_humidity;BME280_pressure;Samples;Min_cycle;Max_cycle;Signal;HPM_P1;HPM_P2
2023/03/29 00:01:40;;;;;;;4.95;2.58;;;;;;;16.96;40.89;101722.28;5047175;28;20074;-40
2023/03/29 00:04:08;;;;;;;4.43;2.33;;;;;;;16.95;41.20;101723.25;5046706;28;20049;-39
2023/03/29 00:06:35;;;;;;;6.90;2.75;;;;;;;16.94;40.98;101718.03;5047281;28;20063;-40
2023/03/29 00:09:04;;;;;;;6.47;3.03;;;;;;;16.93;40.95;101711.84;5049687;28;20061;-40
2023/03/29 00:11:31;;;;;;;6.03;2.95;;;;;;;16.92;40.94;101711.94;5048136;28;20049;-40
2023/03/29 00:13:58;;;;;;;4.78;2.72;;;;;;;16.92;41.72;101709.25;5046191;28;20054;-40
2023/03/29 00:16:24;;;;;;;5.95;2.78;;;;;;;16.92;41.31;101711.94;5046437;28;20120;-40
2023/03/29 00:18:51;;;;;;;5.55;2.30;;;;;;;16.91;41.08;101707.56;5044953;28;20045;-40
2023/03/29 00:21:17;;;;;;;4.10;2.25;;;;;;;16.90;41.20;101700.53;5048738;28;20053;-40
2023/03/29 00:23:44;;;;;;;5.10;2.35;;;;;;;16.89;41.42;101693.47;5047830;28;20133;-40
2023/03/29 00:26:11;;;;;;;4.60;2.38;;;;;;;16.88;41.05;101689.06;5047071;28;20041;-40
2023/03/29 00:28:37;;;;;;;4.40;2.38;;;;;;;16.87;41.21;101680.19;5046984;28;20348;-40
2023/03/29 00:31:06;;;;;;;3.20;1.90;;;;;;;16.86;41.14;101673.13;5046116;28;20041;-40
2023/03/29 00:33:33;;;;;;;4.95;2.13;;;;;;;16.86;41.24;101672.28;5042257;28;20048;-40
2023/03/29 00:36:00;;;;;;;3.85;2.33;;;;;;;16.84;41.64;101677.75;5045901;28;20309;-40
2023/03/29 00:38:27;;;;;;;6.40;2.67;;;;;;;16.84;41.62;101669.72;5042599;28;20050;-40
2023/03/29 00:40:53;;;;;;;5.47;2.15;;;;;;;16.84;41.28;101669.72;5045738;28;20447;-40
2023/03/29 00:43:20;;;;;;;5.22;2.20;;;;;;;16.83;41.09;101667.19;5048658;28;20450;-40
2023/03/29 00:45:47;;;;;;;4.30;2.08;;;;;;;16.83;41.13;101664.50;5045669;28;20135;-40
2023/03/29 00:48:23;;;;;;;3.85;1.73;;;;;;;16.82;41.16;101654.78;5043466;28;20373;-40
2023/03/29 00:50:52;;;;;;;3.17;1.98;;;;;;;16.81;41.38;101647.72;5047640;28;20063;-40
2023/03/29 00:53:25;;;;;;;5.03;2.33;;;;;;;16.81;41.86;101645.06;5047669;28;20479;-40
2023/03/29 00:56:10;;;;;;;3.80;2.05;;;;;;;16.80;41.10;101646.84;5040734;28;20045;-40
2023/03/29 00:58:47;;;;;;;2.90;1.67;;;;;;;16.81;41.22;101645.06;5045183;28;20072;-40
2023/03/29 01:01:18;;;;;;;3.70;2.20;;;;;;;16.78;41.32;101641.63;5045697;28;20110;-40
2023/03/29 01:03:52;;;;;;;2.25;1.73;;;;;;;16.78;41.21;101640.78;5042716;28;20041;-40
2023/03/29 01:06:23;;;;;;;4.32;1.80;;;;;;;16.79;41.11;101639.81;5047448;28;20049;-40
2023/03/29 01:08:54;;;;;;;3.75;1.95;;;;;;;16.78;41.31;101638.13;5045284;28;20061;-40
2023/03/29 01:11:27;;;;;;;3.35;1.90;;;;;;;16.77;41.57;101631.91;5043571;28;20060;-40
2023/03/29 01:14:05;;;;;;;3.58;1.73;;;;;;;16.75;41.26;101628.50;5050462;28;20084;-40
2023/03/29 01:16:35;;;;;;;5.70;1.98;;;;;;;16.76;41.90;101624.00;5053987;28;20405;-40
2023/03/29 01:19:04;;;;;;;2.92;1.75;;;;;;;16.75;41.89;101624.97;5050112;28;20395;-40
2023/03/29 01:21:40;;;;;;;4.10;1.83;;;;;;;16.75;41.68;101627.66;5053061;28;20052;-40
2023/03/29 01:24:53;;;;;;;3.28;1.70;;;;;;;16.72;41.07;101622.50;5053373;28;20051;-40
2023/03/29 01:27:35;;;;;;;4.57;1.98;;;;;;;16.74;41.10;101625.97;5027656;28;20056;-40
2023/03/29 01:30:10;;;;;;;4.22;1.88;;;;;;;16.75;41.88;101627.66;5028360;28;20402;-40
2023/03/29 01:32:45;;;;;;;4.80;1.80;;;;;;;16.74;41.27;101623.28;5043999;28;20057;-39
2023/03/29 01:35:20;;;;;;;2.88;1.65;;;;;;;16.73;41.95;101625.13;5054472;28;20091;-39
2023/03/29 01:38:06;;;;;;;4.43;1.65;;;;;;;16.74;41.16;101617.94;5053100;28;20045;-39
2023/03/29 01:40:33;;;;;;;3.20;1.63;;;;;;;16.73;41.27;101609.06;5052353;28;20053;-39
2023/03/29 01:43:20;;;;;;;2.78;1.52;;;;;;;16.71;41.17;101602.91;5051448;28;20337;-38
2023/03/29 01:45:54;;;;;;;3.00;1.60;;;;;;;16.72;41.29;101601.97;5045061;28;20042;-39
2023/03/29 01:48:29;;;;;;;3.28;1.88;;;;;;;16.72;41.09;101601.97;5052212;28;20179;-39
2023/03/29 01:51:11;;;;;;;2.75;1.35;;;;;;;16.72;41.41;101607.31;5050433;28;20056;-39
2023/03/29 01:54:00;;;;;;;2.45;1.60;;;;;;;16.70;41.78;101597.72;5045008;28;20049;-39
2023/03/29 01:56:29;;;;;;;2.45;1.38;;;;;;;16.72;41.48;101596.63;5049987;28;20049;-39
2023/03/29 01:59:00;;;;;;;2.40;1.60;;;;;;;16.71;41.66;101597.56;5047985;28;20056;-39
2023/03/29 02:01:33;;;;;;;3.28;1.50;;;;;;;16.70;41.29;101593.19;5049327;28;20149;-40
2023/03/29 02:04:05;;;;;;;3.65;1.80;;;;;;;16.71;41.63;101592.22;5050038;28;20056;-39
2023/03/29 02:06:34;;;;;;;3.42;1.50;;;;;;;16.70;41.60;101585.16;5048222;28;20040;-39
2023/03/29 02:09:03;;;;;;;2.10;1.30;;;;;;;16.71;41.66;101588.69;5049025;28;20078;-40
2023/03/29 02:11:30;;;;;;;3.13;1.60;;;;;;;16.70;41.22;101578.97;5048435;28;20064;-39
2023/03/29 02:13:56;;;;;;;2.35;1.33;;;;;;;16.70;41.41;101579.81;5048671;28;20055;-39
2023/03/29 02:16:23;;;;;;;3.50;1.73;;;;;;;16.69;41.35;101575.44;5047665;28;20049;-39
2023/03/29 02:18:51;;;;;;;2.25;1.40;;;;;;;16.71;41.50;101572.63;5049063;28;20059;-39
2023/03/29 02:21:28;;;;;;;2.58;1.50;;;;;;;16.71;42.13;101570.81;5051168;28;20471;-39
2023/03/29 02:24:00;;;;;;;4.00;1.77;;;;;;;16.70;42.18;101571.78;5052933;28;20064;-39
2023/03/29 02:26:28;;;;;;;2.47;1.42;;;;;;;16.72;41.68;101569.84;5050297;28;20041;-39
2023/03/29 02:28:54;;;;;;;3.60;1.70;;;;;;;16.70;41.81;101566.44;5052845;28;20123;-39
2023/03/29 02:31:28;;;;;;;5.43;1.80;;;;;;;16.70;41.98;101565.59;5051192;28;20084;-39
2023/03/29 02:34:02;;;;;;;2.15;1.38;;;;;;;16.71;42.02;101560.09;5051245;28;20079;-39
2023/03/29 02:36:40;;;;;;;3.75;1.55;;;;;;;16.71;41.99;101556.56;5048555;28;20041;-39
2023/03/29 02:39:12;;;;;;;2.17;1.27;;;;;;;16.72;41.88;101552.91;5049615;28;20048;-39
2023/03/29 02:41:42;;;;;;;2.58;1.40;;;;;;;16.71;41.56;101553.91;5052688;28;20049;-39
2023/03/29 02:44:15;;;;;;;1.58;1.20;;;;;;;16.70;41.64;101552.19;5045105;28;20045;-39
2023/03/29 02:46:42;;;;;;;2.38;1.48;;;;;;;16.70;41.43;101546.84;5049169;28;20037;-39
2023/03/29 02:49:10;;;;;;;3.05;1.60;;;;;;;16.70;41.82;101544.19;5045220;28;20325;-39
2023/03/29 02:51:37;;;;;;;2.55;1.50;;;;;;;16.69;41.56;101547.84;5048354;28;20081;-40
2023/03/29 02:54:11;;;;;;;2.80;1.20;;;;;;;16.69;42.06;101545.16;5049034;28;20473;-40
2023/03/29 02:56:59;;;;;;;3.58;1.67;;;;;;;16.68;41.71;101530.06;5050115;28;20416;-39
2023/03/29 02:59:28;;;;;;;3.85;1.60;;;;;;;16.70;41.89;101536.16;5047641;28;20357;-39
2023/03/29 03:01:55;;;;;;;2.47;1.45;;;;;;;16.68;41.16;101533.59;5046088;28;20126;-39
2023/03/29 03:04:22;;;;;;;2.63;1.63;;;;;;;16.68;41.54;101524.69;5044661;28;20048;-40
2023/03/29 03:06:48;;;;;;;2.60;1.15;;;;;;;16.68;42.07;101528.25;5047891;28;20071;-39
2023/03/29 03:09:15;;;;;;;2.35;1.40;;;;;;;16.67;42.24;101518.50;5045581;28;20053;-39
2023/03/29 03:11:41;;;;;;;3.40;1.50;;;;;;;16.67;42.09;101523.84;5048641;28;20041;-39
2023/03/29 03:14:09;;;;;;;3.38;1.55;;;;;;;16.68;42.19;101525.56;5048359;28;20053;-39
2023/03/29 03:16:35;;;;;;;1.95;1.15;;;;;;;16.66;41.26;101524.84;5042930;28;20383;-39
2023/03/29 03:19:03;;;;;;;3.17;1.60;;;;;;;16.66;41.66;101532.03;5048318;28;20053;-39
2023/03/29 03:21:29;;;;;;;2.50;1.38;;;;;;;16.66;42.03;101527.50;5044801;28;20044;-39
2023/03/29 03:23:56;;;;;;;2.58;1.40;;;;;;;16.65;41.92;101516.94;5048500;28;20417;-39
2023/03/29 03:26:28;;;;;;;2.15;1.10;;;;;;;16.65;41.72;101511.59;5045755;28;20041;-39
2023/03/29 03:28:56;;;;;;;1.77;1.23;;;;;;;16.64;41.63;101512.56;5046422;28;20162;-39
2023/03/29 03:31:22;;;;;;;3.50;1.42;;;;;;;16.64;42.11;101509.88;5047620;28;20053;-39
2023/03/29 03:33:49;;;;;;;2.67;1.38;;;;;;;16.65;42.10;101503.56;5050497;28;20414;-38
2023/03/29 03:36:15;;;;;;;3.60;1.48;;;;;;;16.65;41.55;101501.72;5048004;28;20041;-39
2023/03/29 03:38:42;;;;;;;4.65;1.58;;;;;;;16.65;41.58;101506.25;5045233;28;20385;-40
2023/03/29 03:41:09;;;;;;;2.42;1.50;;;;;;;16.63;41.57;101503.69;5042541;28;20049;-39
2023/03/29 03:43:36;;;;;;;2.67;1.20;;;;;;;16.64;42.00;101507.19;5047774;28;20127;-39
2023/03/29 03:46:02;;;;;;;3.45;1.23;;;;;;;16.64;42.16;101515.22;5045990;28;20081;-40
2023/03/29 03:48:29;;;;;;;1.98;1.23;;;;;;;16.63;42.09;101522.41;5046833;28;20099;-39
2023/03/29 03:50:57;;;;;;;2.35;1.27;;;;;;;16.63;42.04;101522.41;5048464;28;20136;-39
2023/03/29 03:53:26;;;;;;;2.10;1.08;;;;;;;16.64;42.04;101507.19;5048015;28;20064;-39
2023/03/29 03:55:54;;;;;;;1.65;1.13;;;;;;;16.63;41.83;101509.03;5049138;28;20041;-39
2023/03/29 03:58:22;;;;;;;1.92;1.33;;;;;;;16.65;41.83;101514.28;5046909;28;20729;-39
2023/03/29 04:00:50;;;;;;;2.03;1.13;;;;;;;16.64;41.93;101504.53;5044390;28;20493;-39
2023/03/29 04:03:17;;;;;;;2.90;1.63;;;;;;;16.66;41.72;101515.97;5047847;28;20053;-40
2023/03/29 04:05:45;;;;;;;2.17;1.20;;;;;;;16.63;41.98;101502.84;5045367;28;20440;-39
2023/03/29 04:08:12;;;;;;;2.17;1.40;;;;;;;16.64;41.75;101513.41;5047168;28;20055;-39
2023/03/29 04:10:39;;;;;;;3.25;1.60;;;;;;;16.63;41.51;101509.03;5050456;28;20052;-39
2023/03/29 04:13:05;;;;;;;4.50;1.65;;;;;;;16.63;42.36;101509.03;5051739;28;20148;-39
2023/03/29 04:15:37;;;;;;;1.70;1.27;;;;;;;16.63;42.78;101505.50;5049224;28;20071;-39
2023/03/29 04:18:06;;;;;;;2.78;1.38;;;;;;;16.63;42.35;101500.16;5044939;28;20136;-39
2023/03/29 04:20:33;;;;;;;1.55;1.10;;;;;;;16.68;42.36;101503.28;5044504;28;20049;-39
2023/03/29 04:23:00;;;;;;;1.85;1.27;;;;;;;16.71;41.96;101490.50;5054497;28;20336;-39
2023/03/29 04:25:27;;;;;;;2.20;1.20;;;;;;;16.79;42.01;101492.56;5054098;28;20084;-39
2023/03/29 04:27:53;;;;;;;1.98;1.40;;;;;;;16.86;41.64;101483.03;5054105;28;20059;-39
2023/03/29 04:30:20;;;;;;;2.33;1.58;;;;;;;16.92;42.16;101481.66;5050824;28;20049;-39
2023/03/29 04:32:47;;;;;;;2.90;1.10;;;;;;;17.00;42.10;101476.50;5048917;28;20063;-39
2023/03/29 04:35:14;;;;;;;4.10;1.40;;;;;;;17.08;41.37;101484.72;5047679;28;20056;-39
2023/03/29 04:37:40;;;;;;;2.58;1.60;;;;;;;17.14;41.07;101478.00;5049402;28;20072;-39
2023/03/29 04:40:08;;;;;;;4.55;1.20;;;;;;;17.19;41.53;101476.63;5054479;28;20055;-39
2023/03/29 04:42:36;;;;;;;3.95;1.77;;;;;;;17.22;41.70;101470.16;5054752;28;20128;-40
2023/03/29 04:45:02;;;;;;;2.42;1.50;;;;;;;17.26;40.71;101476.94;5054057;28;20179;-40
2023/03/29 04:47:30;;;;;;;3.67;1.45;;;;;;;17.28;41.24;101478.47;5048370;28;20056;-40
2023/03/29 04:49:56;;;;;;;3.25;1.73;;;;;;;17.30;40.75;101473.00;5046010;28;20374;-40
2023/03/29 04:52:23;;;;;;;2.60;1.40;;;;;;;17.33;40.81;101470.06;5051646;28;20609;-40
2023/03/29 04:54:50;;;;;;;1.75;1.45;;;;;;;17.34;40.57;101473.59;5054578;28;20080;-40
2023/03/29 04:57:16;;;;;;;2.85;1.75;;;;;;;17.35;40.90;101469.94;5054473;28;20128;-39
2023/03/29 04:59:43;;;;;;;3.58;1.73;;;;;;;17.34;41.45;101468.25;5053817;28;20455;-40
2023/03/29 05:02:09;;;;;;;3.30;1.95;;;;;;;17.35;41.11;101459.22;5051908;28;20448;-40
2023/03/29 05:04:36;;;;;;;3.40;1.50;;;;;;;17.34;40.45;101461.03;5052176;28;20124;-40
2023/03/29 05:07:03;;;;;;;4.47;1.55;;;;;;;17.34;41.09;101457.53;5052792;28;20044;-40
2023/03/29 05:09:29;;;;;;;4.47;2.30;;;;;;;17.33;41.12;101466.56;5053116;28;20064;-40
2023/03/29 05:12:00;;;;;;;3.10;1.95;;;;;;;17.33;40.96;101463.88;5054395;28;20459;-40
2023/03/29 05:14:26;;;;;;;4.47;2.20;;;;;;;17.28;41.26;101467.78;5052647;28;20392;-40
2023/03/29 05:16:53;;;;;;;3.00;1.63;;;;;;;17.24;41.10;101463.66;5051547;28;20437;-40
2023/03/29 05:19:23;;;;;;;3.42;2.05;;;;;;;17.20;40.82;101472.94;5052374;28;20064;-40
2023/03/29 05:21:49;;;;;;;4.10;1.90;;;;;;;17.15;40.78;101468.97;5052458;28;20132;-40
2023/03/29 05:24:16;;;;;;;3.53;2.10;;;;;;;17.10;41.30;101471.22;5052560;28;20049;-40
2023/03/29 05:26:43;;;;;;;3.83;2.00;;;;;;;17.03;41.14;101477.09;5052048;28;20099;-40
2023/03/29 05:29:11;;;;;;;3.47;1.77;;;;;;;16.98;41.68;101470.44;5053338;28;20091;-40
2023/03/29 05:31:37;;;;;;;2.60;1.90;;;;;;;16.91;42.25;101466.59;5050664;28;20123;-40
2023/03/29 05:34:05;;;;;;;3.28;2.08;;;;;;;16.86;41.80;101468.81;5051130;28;20048;-40
2023/03/29 05:36:32;;;;;;;4.18;2.20;;;;;;;16.79;41.91;101471.16;5052297;28;20092;-40
2023/03/29 05:38:59;;;;;;;4.57;2.08;;;;;;;16.73;42.33;101467.19;5052797;28;20048;-39
2023/03/29 05:41:25;;;;;;;3.78;2.17;;;;;;;16.70;42.17;101466.56;5052310;28;20365;-39
2023/03/29 05:43:52;;;;;;;3.10;1.98;;;;;;;16.66;42.45;101465.97;5052352;28;20064;-39
2023/03/29 05:46:18;;;;;;;3.95;2.15;;;;;;;16.70;42.14;101474.56;5052706;28;20140;-39
2023/03/29 05:48:46;;;;;;;3.80;1.92;;;;;;;16.78;42.08;101464.09;5051502;28;20072;-39
2023/03/29 05:51:12;;;;;;;4.30;2.38;;;;;;;16.90;42.04;101465.72;5053376;28;20049;-40
2023/03/29 05:53:39;;;;;;;3.70;2.17;;;;;;;17.06;42.38;101467.09;5053154;28;20057;-40
2023/03/29 05:56:07;;;;;;;4.55;2.42;;;;;;;17.18;41.95;101474.94;5053124;28;20056;-39
2023/03/29 05:58:35;;;;;;;4.25;2.17;;;;;;;17.33;41.68;101485.31;5053007;28;20044;-40
2023/03/29 06:01:03;;;;;;;2.75;1.67;;;;;;;17.42;41.42;101474.63;5050459;28;20055;-40
2023/03/29 06:03:30;;;;;;;6.63;2.55;;;;;;;17.52;41.07;101471.97;5048854;28;20045;-39
2023/03/29 06:06:01;;;;;;;5.00;2.47;;;;;;;17.60;41.15;101472.13;5045341;28;20080;-39
2023/03/29 06:08:28;;;;;;;4.10;2.40;;;;;;;17.66;40.78;101481.50;5049449;28;20070;-39
2023/03/29 06:11:04;;;;;;;4.18;2.33;;;;;;;17.68;40.82;101482.19;5048273;28;20048;-39
2023/03/29 06:13:36;;;;;;;2.85;2.05;;;;;;;17.68;40.74;101476.81;5047869;28;20045;-40
2023/03/29 06:16:03;;;;;;;4.13;2.40;;;;;;;17.69;40.69;101475.88;5049517;28;20440;-40
2023/03/29 06:18:29;;;;;;;4.28;2.13;;;;;;;17.69;40.81;101474.03;5047777;28;20087;-39
2023/03/29 06:20:56;;;;;;;3.90;2.00;;;;;;;17.68;40.64;101483.03;5040109;28;20064;-39
2023/03/29 06:23:23;;;;;;;3.97;2.58;;;;;;;17.68;40.60;101479.50;5051901;28;20325;-39
2023/03/29 06:25:50;;;;;;;3.47;2.30;;;;;;;17.66;40.77;101476.97;5052710;28;20076;-39
2023/03/29 06:28:18;;;;;;;4.72;2.45;;;;;;;17.65;40.83;101474.44;5052992;28;20135;-39
2023/03/29 06:30:44;;;;;;;4.15;2.10;;;;;;;17.63;41.04;101471.03;5049341;28;20044;-39
2023/03/29 06:33:13;;;;;;;3.33;2.10;;;;;;;17.59;41.02;101473.13;5050117;28;20053;-39
2023/03/29 06:35:44;;;;;;;4.13;2.47;;;;;;;17.57;40.39;101479.59;5048631;28;20060;-39
2023/03/29 06:38:11;;;;;;;3.40;2.08;;;;;;;17.54;40.82;101475.38;5051051;28;20045;-39
2023/03/29 06:40:38;;;;;;;3.88;2.30;;;;;;;17.52;41.17;101482.69;5050529;28;20383;-39
2023/03/29 06:43:05;;;;;;;3.63;2.20;;;;;;;17.50;40.97;101479.31;5049310;28;20248;-40
2023/03/29 06:45:34;;;;;;;4.43;1.85;;;;;;;17.49;41.14;101483.81;5049637;28;20449;-39
2023/03/29 06:48:02;;;;;;;4.53;2.17;;;;;;;17.48;41.26;101478.59;5050116;28;20041;-40
2023/03/29 06:50:29;;;;;;;3.22;2.47;;;;;;;17.46;41.04;101480.56;5049577;28;20049;-40
2023/03/29 06:52:56;;;;;;;3.28;2.03;;;;;;;17.40;41.60;101484.59;5048471;28;20131;-39
2023/03/29 06:55:24;;;;;;;3.28;2.10;;;;;;;17.35;41.10;101489.53;5046864;28;20064;-39
2023/03/29 06:57:53;;;;;;;3.30;2.08;;;;;;;17.29;41.43;101492.75;5048895;28;20041;-39
2023/03/29 07:00:26;;;;;;;4.78;2.28;;;;;;;17.26;41.90;101493.00;5050568;28;20067;-40
2023/03/29 07:02:55;;;;;;;5.90;2.30;;;;;;;17.18;42.22;101496.34;5049073;28;20199;-39
2023/03/29 07:05:22;;;;;;;4.78;2.65;;;;;;;17.14;42.03;101499.44;5049119;28;20060;-39
2023/03/29 07:07:55;;;;;;;5.07;2.30;;;;;;;17.09;42.60;101504.34;5042067;28;20041;-39
2023/03/29 07:10:25;;;;;;;6.38;2.47;;;;;;;17.03;42.92;101500.34;5047659;28;20380;-39
2023/03/29 07:12:51;;;;;;;5.22;2.42;;;;;;;16.99;42.42;101505.09;5049615;28;20086;-39
2023/03/29 07:15:20;;;;;;;2.72;1.85;;;;;;;16.95;42.18;101506.34;5047116;28;20049;-39
2023/03/29 07:17:48;;;;;;;4.95;2.17;;;;;;;16.93;42.72;101502.97;5048096;28;20131;-39
2023/03/29 07:20:15;;;;;;;4.35;2.55;;;;;;;16.91;42.66;101512.94;5044547;28;20048;-39
2023/03/29 07:22:43;;;;;;;2.60;1.95;;;;;;;16.91;42.55;101504.91;5048434;28;20059;-39
2023/03/29 07:25:11;;;;;;;8.70;2.70;;;;;;;16.90;42.93;101497.03;5047266;28;20056;-39
2023/03/29 07:27:40;;;;;;;3.95;2.33;;;;;;;16.90;42.62;101497.88;5053292;28;20049;-40
2023/03/29 07:30:09;;;;;;;3.17;2.20;;;;;;;16.94;42.60;101498.47;5047955;28;20128;-40
2023/03/29 07:32:37;;;;;;;3.53;2.00;;;;;;;16.95;42.24;101500.16;5049536;28;20057;-40
2023/03/29 07:35:05;;;;;;;4.13;2.25;;;;;;;16.96;42.35;101496.47;5050036;28;20637;-39
2023/03/29 07:37:35;;;;;;;3.92;2.40;;;;;;;16.95;42.51;101501.00;5049448;28;20144;-39
2023/03/29 07:40:17;;;;;;;4.82;2.13;;;;;;;16.97;43.13;101514.28;5047185;28;20049;-39
2023/03/29 07:42:45;;;;;;;4.30;2.00;;;;;;;16.99;42.71;101521.19;5048484;28;20049;-40
2023/03/29 07:45:15;;;;;;;5.05;2.47;;;;;;;17.00;42.36;101508.63;5053573;28;20055;-39
2023/03/29 07:47:46;;;;;;;5.57;2.10;;;;;;;17.00;42.39;101500.59;5055147;28;20506;-39
2023/03/29 07:50:13;;;;;;;3.35;2.13;;;;;;;17.00;42.33;101505.94;5055371;28;20095;-39
2023/03/29 07:52:40;;;;;;;4.85;2.25;;;;;;;17.02;42.85;101504.84;5055650;28;20048;-39
2023/03/29 07:55:07;;;;;;;4.47;2.45;;;;;;;17.04;42.28;101499.34;5053366;28;20041;-39
2023/03/29 07:57:34;;;;;;;3.83;1.92;;;;;;;17.05;42.37;101506.44;5054352;28;20052;-39
2023/03/29 08:00:14;;;;;;;4.95;2.50;;;;;;;17.06;42.22;101507.28;5055747;28;20348;-40
2023/03/29 08:02:43;;;;;;;5.05;2.60;;;;;;;17.08;42.16;101507.97;5051910;28;20107;-40
2023/03/29 08:05:14;;;;;;;5.72;2.20;;;;;;;17.09;42.01;101501.66;5054443;28;20076;-40
2023/03/29 08:07:49;;;;;;;4.53;2.17;;;;;;;17.09;42.33;101505.19;5054010;28;20064;-40
2023/03/29 08:10:18;;;;;;;5.20;2.75;;;;;;;17.10;42.84;101514.06;5054168;28;20540;-40
2023/03/29 08:12:46;;;;;;;5.05;2.50;;;;;;;17.11;42.43;101505.03;5056605;28;20056;-40
2023/03/29 08:15:14;;;;;;;3.67;2.03;;;;;;;17.12;42.96;101501.38;5053853;28;20107;-40
2023/03/29 08:17:41;;;;;;;4.88;2.28;;;;;;;17.14;42.22;101508.31;5051749;28;20690;-39
2023/03/29 08:20:18;;;;;;;4.28;2.55;;;;;;;17.15;42.77;101509.16;5054489;28;20045;-40
2023/03/29 08:22:45;;;;;;;4.45;2.33;;;;;;;17.17;42.64;101510.75;5053054;28;20044;-40
2023/03/29 08:25:11;;;;;;;6.18;2.95;;;;;;;17.18;42.69;101501.72;5052779;28;20395;-39
2023/03/29 08:27:38;;;;;;;7.25;2.70;;;;;;;17.20;42.42;101499.72;5053363;28;20045;-40
2023/03/29 08:30:08;;;;;;;3.92;2.25;;;;;;;17.21;42.17;101493.41;5053954;28;20057;-40
2023/03/29 08:32:35;;;;;;;4.45;2.30;;;;;;;17.22;42.81;101484.38;5053182;28;20056;-40
2023/03/29 08:35:03;;;;;;;5.40;2.28;;;;;;;17.25;42.74;101480.59;5054860;28;20045;-40
2023/03/29 08:37:31;;;;;;;5.70;2.30;;;;;;;17.25;42.54;101481.47;5049379;28;20683;-41
2023/03/29 08:39:58;;;;;;;4.82;2.97;;;;;;;17.27;42.90;101479.47;5052577;28;20048;-40
2023/03/29 08:42:48;;;;;;;4.82;2.05;;;;;;;17.28;43.00;101483.00;5052414;28;20495;-40
2023/03/29 08:45:22;;;;;;;3.35;2.33;;;;;;;17.32;42.71;101492.47;5049858;28;20051;-40
2023/03/29 08:48:22;;;;;;;4.70;2.50;;;;;;;17.33;42.83;101496.03;5053798;28;20163;-40
2023/03/29 08:50:57;;;;;;;5.55;2.38;;;;;;;17.34;42.65;101508.44;5052974;28;20075;-40
2023/03/29 08:53:33;;;;;;;5.63;2.47;;;;;;;17.35;42.66;101507.44;5048139;28;20107;-40
2023/03/29 08:56:07;;;;;;;4.55;2.33;;;;;;;17.35;42.72;101499.41;5050929;28;20083;-40
2023/03/29 08:58:36;;;;;;;7.50;2.70;;;;;;;17.36;42.19;101504.63;5054194;28;20064;-40
2023/03/29 09:01:07;;;;;;;4.57;2.70;;;;;;;17.37;42.71;101510.84;5052802;28;20362;-40
2023/03/29 09:03:41;;;;;;;8.18;2.72;;;;;;;17.37;42.17;101506.34;5054154;28;20048;-40
2023/03/29 09:06:11;;;;;;;4.00;2.40;;;;;;;17.38;42.78;101501.81;5051722;28;20049;-40
2023/03/29 09:08:46;;;;;;;4.55;2.72;;;;;;;17.38;42.89;101502.66;5053507;28;20057;-40
2023/03/29 09:11:23;;;;;;;6.57;2.95;;;;;;;17.39;42.66;101514.22;5052799;28;20344;-40
2023/03/29 09:14:04;;;;;;;4.68;2.45;;;;;;;17.39;43.15;101503.50;5054066;28;20137;-40
2023/03/29 09:16:51;;;;;;;5.85;2.75;;;;;;;17.38;42.91;101505.34;5049118;28;20049;-40
2023/03/29 09:19:36;;;;;;;3.88;2.28;;;;;;;17.40;42.93;101511.41;5051819;28;20053;-40
2023/03/29 09:22:10;;;;;;;6.30;2.75;;;;;;;17.41;43.29;101507.78;5049758;28;20777;-40
2023/03/29 09:24:52;;;;;;;5.85;3.17;;;;;;;17.42;43.14;101513.97;5049163;28;20053;-40
2023/03/29 09:27:25;;;;;;;5.70;2.90;;;;;;;17.43;43.02;101511.16;5053998;28;20392;-40
2023/03/29 09:30:11;;;;;;;6.22;2.85;;;;;;;17.43;43.09;101516.50;5051534;28;20037;-40
2023/03/29 09:33:06;;;;;;;6.15;3.25;;;;;;;17.43;43.27;101511.16;5049440;28;20045;-40
2023/03/29 09:35:42;;;;;;;4.55;3.00;;;;;;;17.45;43.36;101511.03;5049438;28;20056;-40
2023/03/29 09:38:12;;;;;;;6.72;2.80;;;;;;;17.45;42.62;101508.34;5051363;28;20053;-40
2023/03/29 09:40:48;;;;;;;6.30;3.05;;;;;;;17.45;43.25;101519.06;5050965;28;20495;-40
2023/03/29 09:43:28;;;;;;;7.60;3.10;;;;;;;17.46;43.45;101507.38;5051367;28;20385;-39
2023/03/29 09:45:57;;;;;;;6.10;2.90;;;;;;;17.49;43.04;101509.78;5048454;28;20064;-39
2023/03/29 09:48:25;;;;;;;6.45;2.85;;;;;;;17.50;43.62;101500.75;5052761;28;20045;-39
2023/03/29 09:50:53;;;;;;;4.13;2.50;;;;;;;17.54;43.16;101504.03;5048624;28;20080;-39
2023/03/29 09:53:20;;;;;;;5.03;2.90;;;;;;;17.55;43.18;101503.88;5049134;28;20136;-39
2023/03/29 09:55:49;;;;;;;5.90;3.20;;;;;;;17.57;43.01;101504.59;5052574;28;20090;-39
2023/03/29 09:58:23;;;;;;;5.05;2.55;;;;;;;17.59;43.01;101513.34;5051150;28;20083;-40
2023/03/29 10:00:50;;;;;;;6.15;2.80;;;;;;;17.60;42.45;101507.00;5050435;28;20648;-39
2023/03/29 10:03:26;;;;;;;6.18;3.10;;;;;;;17.60;43.16;101504.31;5050690;28;20049;-39
2023/03/29 10:05:56;;;;;;;6.15;3.00;;;;;;;17.60;42.91;101512.34;5048358;28;20049;-39
2023/03/29 10:08:27;;;;;;;5.40;3.42;;;;;;;17.61;43.32;101511.38;5049854;28;20123;-39
2023/03/29 10:10:56;;;;;;;4.80;2.92;;;;;;;17.61;43.16;101505.16;5049949;28;20428;-39
2023/03/29 10:13:31;;;;;;;4.60;2.50;;;;;;;17.62;43.30;101504.19;5050079;28;20055;-39
2023/03/29 10:16:07;;;;;;;5.43;2.92;;;;;;;17.61;43.09;101497.13;5049278;28;20103;-40
2023/03/29 10:18:42;;;;;;;6.45;3.25;;;;;;;17.61;43.29;101498.00;5049245;28;20068;-39
2023/03/29 10:21:15;;;;;;;6.57;3.20;;;;;;;17.63;42.90;101496.00;5050066;28;20056;-39
2023/03/29 10:23:43;;;;;;;6.13;2.83;;;;;;;17.65;43.18;101498.56;5049985;28;20425;-39
2023/03/29 10:26:23;;;;;;;10.55;3.78;;;;;;;17.67;43.55;101491.22;5050165;28;20076;-39
2023/03/29 10:28:53;;;;;;;4.93;3.30;;;;;;;17.68;43.12;101488.41;5051120;28;20376;-39
2023/03/29 10:31:21;;;;;;;4.63;3.17;;;;;;;17.68;43.11;101487.56;5050260;28;20057;-39
2023/03/29 10:33:56;;;;;;;5.75;2.83;;;;;;;17.68;43.50;101484.88;5052021;28;20048;-39
2023/03/29 10:36:25;;;;;;;4.40;2.85;;;;;;;17.68;43.19;101491.06;5049968;28;20049;-39
2023/03/29 10:38:55;;;;;;;6.32;3.72;;;;;;;17.68;43.62;101485.72;5051317;28;20116;-39
2023/03/29 10:41:24;;;;;;;6.03;2.90;;;;;;;17.68;43.29;101485.72;5051038;28;20049;-40
2023/03/29 10:43:50;;;;;;;7.78;3.15;;;;;;;17.71;43.78;101484.59;5049351;28;20326;-40
2023/03/29 10:46:20;;;;;;;7.65;3.78;;;;;;;17.71;44.12;101480.09;5048652;28;20348;-40
2023/03/29 10:48:56;;;;;;;6.38;3.30;;;;;;;17.72;43.12;101468.38;5048731;28;20110;-39
2023/03/29 10:51:24;;;;;;;6.15;3.92;;;;;;;17.73;43.53;101464.72;5049149;28;20132;-39
2023/03/29 10:53:50;;;;;;;5.65;3.53;;;;;;;17.75;43.47;101460.09;5047003;28;20053;-39
2023/03/29 10:56:29;;;;;;;7.22;3.78;;;;;;;17.74;43.71;101461.09;5047444;28;20340;-39
2023/03/29 10:59:23;;;;;;;5.78;2.88;;;;;;;17.74;43.80;101463.78;5049522;28;20056;-39
2023/03/29 11:01:52;;;;;;;;;;;;;;;17.76;43.66;101467.16;5049412;28;20052;-39
2023/03/29 11:04:32;;;;;;;5.47;3.30;;;;;;;17.78;43.62;101464.34;5050554;28;19955;-39
2023/03/29 11:07:21;;;;;;;4.43;3.03;;;;;;;17.75;43.96;101451.22;5050164;28;20048;-39
2023/03/29 11:10:14;;;;;;;4.75;2.83;;;;;;;17.73;43.54;101459.38;5049104;28;20056;-39
2023/03/29 11:13:07;;;;;;;3.83;2.50;;;;;;;17.72;43.84;101457.66;5049058;28;20417;-39
2023/03/29 11:15:56;;;;;;;4.03;2.60;;;;;;;17.71;43.80;101452.44;5046229;28;20379;-40
2023/03/29 11:18:38;;;;;;;5.75;3.53;;;;;;;17.72;44.13;101456.81;5049569;28;20055;-39
2023/03/29 11:21:34;;;;;;;4.55;2.47;;;;;;;17.71;43.93;101457.78;5050081;28;20087;-39
2023/03/29 11:24:23;;;;;;;6.07;2.53;;;;;;;17.72;44.06;101454.97;5051499;28;20049;-39
2023/03/29 11:26:52;;;;;;;5.47;2.75;;;;;;;17.72;43.70;101462.16;5049016;28;20053;-39
2023/03/29 11:29:27;;;;;;;3.83;2.50;;;;;;;17.70;43.81;101454.28;5043384;28;20531;-39
2023/03/29 11:32:29;;;;;;;4.45;3.08;;;;;;;17.70;44.19;101456.94;5047876;28;20437;-39
2023/03/29 11:35:18;;;;;;;4.07;2.88;;;;;;;17.71;44.11;101461.31;5043799;28;20056;-39
2023/03/29 11:37:49;;;;;;;6.65;2.90;;;;;;;17.72;43.99;101451.44;5048724;28;20045;-39
2023/03/29 11:40:27;;;;;;;2.90;2.10;;;;;;;17.72;43.86;101456.81;5050237;28;20412;-39
2023/03/29 11:42:57;;;;;;;6.38;3.08;;;;;;;17.72;43.97;101460.31;5049128;28;20318;-39